sensor_id;sensor_type;location;lat;lon;timestamp;pressure;altitude;pressure_sealevel;temperature;humidity
70229;BME280;57617;51.988;5.854;2022-12-13T00:01:20;100838.97;;;1.30;68.78
70229;BME280;57617;51.988;5.854;2022-12-13T00:03:46;100840.31;;;1.26;68.44
70229;BME280;57617;51.988;5.854;2022-12-13T00:06:11;100843.19;;;1.24;68.76
70229;BME280;57617;51.988;5.854;2022-12-13T00:08:37;100834.50;;;1.22;68.88
70229;BME280;57617;51.988;5.854;2022-12-13T00:11:07;100832.97;;;1.28;68.93
70229;BME280;57617;51.988;5.854;2022-12-13T00:13:35;100839.31;;;1.27;68.51
70229;BME280;57617;51.988;5.854;2022-12-13T00:16:05;100828.16;;;1.23;68.35
70229;BME280;57617;51.988;5.854;2022-12-13T00:18:31;100834.50;;;1.22;68.56
70229;BME280;57617;51.988;5.854;2022-12-13T00:20:57;100836.16;;;1.23;68.14
70229;BME280;57617;51.988;5.854;2022-12-13T00:23:23;100827.84;;;1.18;67.77
70229;BME280;57617;51.988;5.854;2022-12-13T00:25:48;100824.06;;;1.13;68.32
70229;BME280;57617;51.988;5.854;2022-12-13T00:28:14;100828.28;;;1.07;68.63
70229;BME280;57617;51.988;5.854;2022-12-13T00:30:40;100831.31;;;1.04;68.19
70229;BME280;57617;51.988;5.854;2022-12-13T00:33:06;100830.66;;;1.02;68.32
70229;BME280;57617;51.988;5.854;2022-12-13T00:35:41;100831.84;;;1.00;68.46
70229;BME280;57617;51.988;5.854;2022-12-13T00:38:08;100819.03;;;0.95;68.09
70229;BME280;57617;51.988;5.854;2022-12-13T00:40:33;100823.19;;;0.98;68.80
70229;BME280;57617;51.988;5.854;2022-12-13T00:42:58;100826.69;;;0.98;68.59
70229;BME280;57617;51.988;5.854;2022-12-13T00:45:24;100820.53;;;0.98;67.99
70229;BME280;57617;51.988;5.854;2022-12-13T00:47:49;100813.69;;;0.95;68.26
70229;BME280;57617;51.988;5.854;2022-12-13T00:50:14;100816.69;;;0.92;67.92
70229;BME280;57617;51.988;5.854;2022-12-13T00:52:40;100818.53;;;0.92;68.31
70229;BME280;57617;51.988;5.854;2022-12-13T00:55:05;100772.16;;;0.62;68.08
70229;BME280;57617;51.988;5.854;2022-12-13T00:57:31;100822.41;;;0.89;68.19
70229;BME280;57617;51.988;5.854;2022-12-13T00:59:57;100816.56;;;0.86;68.40
70229;BME280;57617;51.988;5.854;2022-12-13T01:02:23;100824.44;;;0.87;68.69
70229;BME280;57617;51.988;5.854;2022-12-13T01:04:49;100806.59;;;0.80;68.27
70229;BME280;57617;51.988;5.854;2022-12-13T01:07:14;100822.94;;;0.85;68.06
70229;BME280;57617;51.988;5.854;2022-12-13T01:09:39;100814.91;;;0.85;68.27
70229;BME280;57617;51.988;5.854;2022-12-13T01:12:06;100814.13;;;0.84;68.69
70229;BME280;57617;51.988;5.854;2022-12-13T01:14:36;100818.44;;;0.85;68.83
70229;BME280;57617;51.988;5.854;2022-12-13T01:17:01;100821.13;;;0.85;69.29
70229;BME280;57617;51.988;5.854;2022-12-13T01:19:27;100813.75;;;0.87;69.02
70229;BME280;57617;51.988;5.854;2022-12-13T01:21:54;100814.59;;;0.88;68.66
70229;BME280;57617;51.988;5.854;2022-12-13T01:24:19;100809.22;;;0.88;69.20
70229;BME280;57617;51.988;5.854;2022-12-13T01:26:47;100813.38;;;0.90;69.04
70229;BME280;57617;51.988;5.854;2022-12-13T01:29:12;100813.38;;;0.90;68.47
70229;BME280;57617;51.988;5.854;2022-12-13T01:31:37;100816.69;;;0.92;68.89
70229;BME280;57617;51.988;5.854;2022-12-13T01:34:06;100808.84;;;0.91;68.41
70229;BME280;57617;51.988;5.854;2022-12-13T01:36:35;100815.88;;;0.92;68.80
70229;BME280;57617;51.988;5.854;2022-12-13T01:39:03;100813.88;;;0.94;68.93
70229;BME280;57617;51.988;5.854;2022-12-13T01:41:29;100819.84;;;0.96;68.78
70229;BME280;57617;51.988;5.854;2022-12-13T01:43:58;100819.03;;;0.95;68.64
70229;BME280;57617;51.988;5.854;2022-12-13T01:46:25;100822.53;;;0.96;68.41
70229;BME280;57617;51.988;5.854;2022-12-13T01:51:30;100826.56;;;0.92;68.56
70229;BME280;57617;51.988;5.854;2022-12-13T01:53:59;100826.75;;;0.90;68.30
70229;BME280;57617;51.988;5.854;2022-12-13T01:56:30;100826.75;;;0.90;68.53
70229;BME280;57617;51.988;5.854;2022-12-13T01:58:57;100815.03;;;0.91;69.00
70229;BME280;57617;51.988;5.854;2022-12-13T02:01:24;100813.00;;;0.93;69.25
70229;BME280;57617;51.988;5.854;2022-12-13T02:03:50;100805.38;;;0.90;69.26
70229;BME280;57617;51.988;5.854;2022-12-13T02:06:19;100809.69;;;0.91;69.22
70229;BME280;57617;51.988;5.854;2022-12-13T02:08:47;100807.84;;;0.92;69.24
70229;BME280;57617;51.988;5.854;2022-12-13T02:11:13;100816.16;;;0.97;69.22
70229;BME280;57617;51.988;5.854;2022-12-13T02:13:39;100803.97;;;0.94;68.71
70229;BME280;57617;51.988;5.854;2022-12-13T02:21:20;100800.97;;;0.97;68.80
70229;BME280;57617;51.988;5.854;2022-12-13T02:31:53;100806.94;;;0.99;69.58
70229;BME280;57617;51.988;5.854;2022-12-13T02:34:28;100812.28;;;0.99;69.25
70229;BME280;57617;51.988;5.854;2022-12-13T02:37:18;100797.94;;;1.00;69.18
70229;BME280;57617;51.988;5.854;2022-12-13T02:39:57;100797.94;;;1.00;68.61
70229;BME280;57617;51.988;5.854;2022-12-13T02:42:28;100802.44;;;1.00;68.30
70229;BME280;57617;51.988;5.854;2022-12-13T02:45:01;100795.78;;;0.96;68.97
70229;BME280;57617;51.988;5.854;2022-12-13T02:47:29;100792.66;;;0.92;68.46
70229;BME280;57617;51.988;5.854;2022-12-13T02:49:59;100789.97;;;0.92;68.67
70229;BME280;57617;51.988;5.854;2022-12-13T02:52:28;100801.50;;;0.93;68.98
70229;BME280;57617;51.988;5.854;2022-12-13T02:54:56;100796.97;;;0.93;68.92
70229;BME280;57617;51.988;5.854;2022-12-13T02:57:42;100797.81;;;0.94;68.74
70229;BME280;57617;51.988;5.854;2022-12-13T03:00:11;100789.13;;;0.92;69.43
70229;BME280;57617;51.988;5.854;2022-12-13T03:08:56;100787.13;;;0.94;68.93
70229;BME280;57617;51.988;5.854;2022-12-13T03:11:36;100786.28;;;0.93;69.38
70229;BME280;57617;51.988;5.854;2022-12-13T03:14:25;100782.78;;;0.93;69.27
70229;BME280;57617;51.988;5.854;2022-12-13T03:16:51;100778.81;;;0.89;68.75
70229;BME280;57617;51.988;5.854;2022-12-13T03:19:19;100779.09;;;0.94;68.73
70229;BME280;57617;51.988;5.854;2022-12-13T03:21:46;100784.63;;;0.92;68.54
70229;BME280;57617;51.988;5.854;2022-12-13T03:24:12;100784.44;;;0.94;69.04
70229;BME280;57617;51.988;5.854;2022-12-13T03:26:38;100786.47;;;0.92;69.15
70229;BME280;57617;51.988;5.854;2022-12-13T03:29:04;100783.78;;;0.92;69.51
70229;BME280;57617;51.988;5.854;2022-12-13T03:31:30;100787.31;;;0.92;69.07
70229;BME280;57617;51.988;5.854;2022-12-13T03:33:55;100782.50;;;0.88;69.31
70229;BME280;57617;51.988;5.854;2022-12-13T03:36:20;100774.19;;;0.83;69.11
70229;BME280;57617;51.988;5.854;2022-12-13T03:38:48;100789.97;;;0.92;68.67
70229;BME280;57617;51.988;5.854;2022-12-13T03:41:16;100789.97;;;0.92;69.11
70229;BME280;57617;51.988;5.854;2022-12-13T03:43:43;100794.78;;;0.97;69.11
70229;BME280;57617;51.988;5.854;2022-12-13T03:46:09;100787.94;;;0.94;68.94
70229;BME280;57617;51.988;5.854;2022-12-13T03:48:34;100785.47;;;0.93;69.06
70229;BME280;57617;51.988;5.854;2022-12-13T03:51:00;100783.78;;;0.92;68.86
70229;BME280;57617;51.988;5.854;2022-12-13T03:53:25;100787.13;;;0.94;69.34
70229;BME280;57617;51.988;5.854;2022-12-13T03:55:51;100782.78;;;0.93;68.79
70229;BME280;57617;51.988;5.854;2022-12-13T03:58:16;100782.97;;;0.91;69.38
70229;BME280;57617;51.988;5.854;2022-12-13T04:00:42;100781.31;;;0.90;68.92
70229;BME280;57617;51.988;5.854;2022-12-13T04:03:07;100779.63;;;0.89;69.14
70229;BME280;57617;51.988;5.854;2022-12-13T04:05:33;100782.31;;;0.89;68.67
70229;BME280;57617;51.988;5.854;2022-12-13T04:07:58;100774.66;;;0.86;69.22
70229;BME280;57617;51.988;5.854;2022-12-13T04:10:24;100774.00;;;0.84;68.94
70229;BME280;57617;51.988;5.854;2022-12-13T04:12:49;100784.88;;;0.83;68.59
70229;BME280;57617;51.988;5.854;2022-12-13T04:15:33;100780.06;;;0.78;69.02
70229;BME280;57617;51.988;5.854;2022-12-13T04:17:59;100797.28;;;0.76;68.85
70229;BME280;57617;51.988;5.854;2022-12-13T04:20:24;100790.09;;;0.76;68.82
70229;BME280;57617;51.988;5.854;2022-12-13T04:22:50;100789.47;;;0.74;69.20
70229;BME280;57617;51.988;5.854;2022-12-13T04:25:15;100791.28;;;0.74;68.96
70229;BME280;57617;51.988;5.854;2022-12-13T04:27:40;100783.28;;;0.74;69.28
70229;BME280;57617;51.988;5.854;2022-12-13T04:30:06;100779.75;;;0.73;68.77
70229;BME280;57617;51.988;5.854;2022-12-13T04:32:32;100782.44;;;0.73;68.77
70229;BME280;57617;51.988;5.854;2022-12-13T04:34:57;100768.78;;;0.68;68.77
70229;BME280;57617;51.988;5.854;2022-12-13T04:37:22;100775.25;;;0.74;69.33
70229;BME280;57617;51.988;5.854;2022-12-13T04:39:48;100777.94;;;0.74;68.67
70229;BME280;57617;51.988;5.854;2022-12-13T04:42:13;100772.75;;;0.72;68.89
70229;BME280;57617;51.988;5.854;2022-12-13T04:44:38;100771.66;;;0.67;69.09
70229;BME280;57617;51.988;5.854;2022-12-13T04:47:04;100772.13;;;0.70;68.90
70229;BME280;57617;51.988;5.854;2022-12-13T04:49:29;100773.94;;;0.70;69.21
70229;BME280;57617;51.988;5.854;2022-12-13T04:51:55;100772.13;;;0.70;69.31
70229;BME280;57617;51.988;5.854;2022-12-13T04:54:20;100774.63;;;0.72;69.26
70229;BME280;57617;51.988;5.854;2022-12-13T04:56:46;100771.94;;;0.72;69.06
70229;BME280;57617;51.988;5.854;2022-12-13T04:59:11;100736.19;;;0.50;68.92
70229;BME280;57617;51.988;5.854;2022-12-13T05:01:36;100777.28;;;0.72;68.75
70229;BME280;57617;51.988;5.854;2022-12-13T05:04:02;100770.25;;;0.71;69.18
70229;BME280;57617;51.988;5.854;2022-12-13T05:06:27;100765.13;;;0.69;69.01
70229;BME280;57617;51.988;5.854;2022-12-13T05:08:53;100758.44;;;0.65;68.95
70229;BME280;57617;51.988;5.854;2022-12-13T05:11:19;100762.78;;;0.66;69.18
70229;BME280;57617;51.988;5.854;2022-12-13T05:13:44;100767.28;;;0.66;69.10
70229;BME280;57617;51.988;5.854;2022-12-13T05:16:10;100764.31;;;0.61;68.91
70229;BME280;57617;51.988;5.854;2022-12-13T05:18:37;100755.53;;;0.52;68.52
70229;BME280;57617;51.988;5.854;2022-12-13T05:21:08;100755.81;;;0.57;68.68
70229;BME280;57617;51.988;5.854;2022-12-13T05:23:33;100753.53;;;0.54;68.91
70229;BME280;57617;51.988;5.854;2022-12-13T05:25:59;100758.66;;;0.56;69.41
70229;BME280;57617;51.988;5.854;2022-12-13T05:28:26;100747.81;;;0.57;69.09
70229;BME280;57617;51.988;5.854;2022-12-13T05:30:53;100737.84;;;0.51;69.24
70229;BME280;57617;51.988;5.854;2022-12-13T05:33:19;100744.34;;;0.57;68.98
70229;BME280;57617;51.988;5.854;2022-12-13T05:35:45;100742.47;;;0.57;68.95
70229;BME280;57617;51.988;5.854;2022-12-13T05:38:11;100749.47;;;0.58;69.08
70229;BME280;57617;51.988;5.854;2022-12-13T05:40:36;100742.31;;;0.59;69.00
70229;BME280;57617;51.988;5.854;2022-12-13T05:43:02;100745.81;;;0.59;68.67
70229;BME280;57617;51.988;5.854;2022-12-13T05:45:28;100743.47;;;0.56;68.89
70229;BME280;57617;51.988;5.854;2022-12-13T05:47:54;100747.00;;;0.57;68.63
70229;BME280;57617;51.988;5.854;2022-12-13T05:50:19;100738.13;;;0.56;69.21
70229;BME280;57617;51.988;5.854;2022-12-13T05:52:44;100744.50;;;0.55;68.78
70229;BME280;57617;51.988;5.854;2022-12-13T05:55:10;100740.97;;;0.55;68.86
70229;BME280;57617;51.988;5.854;2022-12-13T05:57:36;100734.63;;;0.56;68.96
70229;BME280;57617;51.988;5.854;2022-12-13T06:00:03;100722.97;;;0.57;68.85
70229;BME280;57617;51.988;5.854;2022-12-13T06:02:28;100726.81;;;0.54;68.29
70229;BME280;57617;51.988;5.854;2022-12-13T06:04:53;100721.16;;;0.49;68.98
70229;BME280;57617;51.988;5.854;2022-12-13T06:07:19;100723.00;;;0.49;68.90
70229;BME280;57617;51.988;5.854;2022-12-13T06:09:44;100722.16;;;0.48;68.80
70229;BME280;57617;51.988;5.854;2022-12-13T06:12:09;100727.50;;;0.48;69.05
70229;BME280;57617;51.988;5.854;2022-12-13T06:14:35;100729.38;;;0.48;69.14
70229;BME280;57617;51.988;5.854;2022-12-13T06:17:00;100723.00;;;0.49;68.83
70229;BME280;57617;51.988;5.854;2022-12-13T06:19:26;100718.50;;;0.49;68.69
70229;BME280;57617;51.988;5.854;2022-12-13T06:21:52;100721.34;;;0.48;68.95
70229;BME280;57617;51.988;5.854;2022-12-13T06:24:20;100724.03;;;0.48;68.61
70229;BME280;57617;51.988;5.854;2022-12-13T06:26:46;100727.50;;;0.48;68.93
70229;BME280;57617;51.988;5.854;2022-12-13T06:29:13;100722.84;;;0.50;68.65
70229;BME280;57617;51.988;5.854;2022-12-13T06:31:39;100721.16;;;0.49;68.70
70229;BME280;57617;51.988;5.854;2022-12-13T06:34:05;100727.50;;;0.48;69.07
70229;BME280;57617;51.988;5.854;2022-12-13T06:36:30;100725.03;;;0.47;68.34
70229;BME280;57617;51.988;5.854;2022-12-13T06:38:55;100736.91;;;0.44;68.84
70229;BME280;57617;51.988;5.854;2022-12-13T06:41:21;100721.84;;;0.43;68.99
70229;BME280;57617;51.988;5.854;2022-12-13T06:43:47;100724.53;;;0.43;68.63
70229;BME280;57617;51.988;5.854;2022-12-13T06:46:13;100724.53;;;0.43;68.63
70229;BME280;57617;51.988;5.854;2022-12-13T06:48:39;100719.72;;;0.39;68.54
70229;BME280;57617;51.988;5.854;2022-12-13T06:51:07;100722.78;;;0.36;68.90
70229;BME280;57617;51.988;5.854;2022-12-13T06:53:38;100730.78;;;0.36;68.25
70229;BME280;57617;51.988;5.854;2022-12-13T06:56:06;100727.28;;;0.35;68.84
70229;BME280;57617;51.988;5.854;2022-12-13T06:58:32;100720.91;;;0.36;69.17
70229;BME280;57617;51.988;5.854;2022-12-13T07:01:04;100720.75;;;0.38;68.62
70229;BME280;57617;51.988;5.854;2022-12-13T07:03:30;100719.91;;;0.37;68.28
70229;BME280;57617;51.988;5.854;2022-12-13T07:05:57;100728.94;;;0.36;68.50
70229;BME280;57617;51.988;5.854;2022-12-13T07:08:22;100735.28;;;0.35;68.88
70229;BME280;57617;51.988;5.854;2022-12-13T07:10:47;100733.25;;;0.37;69.43
70229;BME280;57617;51.988;5.854;2022-12-13T07:13:13;100718.97;;;0.30;68.93
70229;BME280;57617;51.988;5.854;2022-12-13T07:15:38;100733.09;;;0.39;69.13
70229;BME280;57617;51.988;5.854;2022-12-13T07:18:03;100735.13;;;0.37;68.38
70229;BME280;57617;51.988;5.854;2022-12-13T07:20:29;100735.00;;;0.30;68.79
70229;BME280;57617;51.988;5.854;2022-12-13T07:22:54;100738.84;;;0.28;69.05
70229;BME280;57617;51.988;5.854;2022-12-13T07:25:21;100727.22;;;0.21;68.98
70229;BME280;57617;51.988;5.854;2022-12-13T07:27:46;100748.69;;;0.27;68.99
70229;BME280;57617;51.988;5.854;2022-12-13T07:30:12;100735.53;;;0.26;69.14
70229;BME280;57617;51.988;5.854;2022-12-13T07:32:38;100743.34;;;0.27;68.53
70229;BME280;57617;51.988;5.854;2022-12-13T07:35:03;100750.53;;;0.27;68.75
70229;BME280;57617;51.988;5.854;2022-12-13T07:37:29;100743.53;;;0.26;68.53
70229;BME280;57617;51.988;5.854;2022-12-13T07:39:54;100744.34;;;0.26;68.81
70229;BME280;57617;51.988;5.854;2022-12-13T07:42:19;100741.69;;;0.26;68.69
70229;BME280;57617;51.988;5.854;2022-12-13T07:44:44;100742.53;;;0.27;68.90
70229;BME280;57617;51.988;5.854;2022-12-13T07:47:10;100752.19;;;0.28;69.05
70229;BME280;57617;51.988;5.854;2022-12-13T07:49:35;100748.34;;;0.30;68.92
70229;BME280;57617;51.988;5.854;2022-12-13T07:52:01;100755.34;;;0.31;68.85
70229;BME280;57617;51.988;5.854;2022-12-13T07:54:26;100758.69;;;0.33;68.72
70229;BME280;57617;51.988;5.854;2022-12-13T07:56:52;100750.47;;;0.35;68.81
70229;BME280;57617;51.988;5.854;2022-12-13T07:59:18;100755.66;;;0.36;69.03
70229;BME280;57617;51.988;5.854;2022-12-13T08:01:43;100759.81;;;0.39;68.81
70229;BME280;57617;51.988;5.854;2022-12-13T08:04:08;100761.47;;;0.40;68.54
70229;BME280;57617;51.988;5.854;2022-12-13T08:06:36;100757.13;;;0.39;68.80
70229;BME280;57617;51.988;5.854;2022-12-13T08:09:02;100767.94;;;0.45;69.05
70229;BME280;57617;51.988;5.854;2022-12-13T08:11:28;100767.09;;;0.45;68.96
70229;BME280;57617;51.988;5.854;2022-12-13T08:13:53;100772.97;;;0.40;68.97
70229;BME280;57617;51.988;5.854;2022-12-13T08:16:19;100764.31;;;0.38;69.20
70229;BME280;57617;51.988;5.854;2022-12-13T08:18:44;100763.78;;;0.43;69.54
70229;BME280;57617;51.988;5.854;2022-12-13T08:21:12;100770.25;;;0.48;69.01
70229;BME280;57617;51.988;5.854;2022-12-13T08:23:37;100769.06;;;0.51;69.26
70229;BME280;57617;51.988;5.854;2022-12-13T08:26:03;100775.53;;;0.56;69.10
70229;BME280;57617;51.988;5.854;2022-12-13T08:28:30;100774.34;;;0.59;69.24
70229;BME280;57617;51.988;5.854;2022-12-13T08:31:04;100776.84;;;0.60;69.37
70229;BME280;57617;51.988;5.854;2022-12-13T08:33:32;100763.13;;;0.63;69.42
70229;BME280;57617;51.988;5.854;2022-12-13T08:35:57;100767.97;;;0.68;69.07
70229;BME280;57617;51.988;5.854;2022-12-13T08:38:30;100760.41;;;0.71;69.14
70229;BME280;57617;51.988;5.854;2022-12-13T08:40:57;100764.22;;;0.77;68.69
70229;BME280;57617;51.988;5.854;2022-12-13T08:43:22;100763.66;;;0.81;69.09
70229;BME280;57617;51.988;5.854;2022-12-13T08:45:48;100763.50;;;0.83;68.38
70229;BME280;57617;51.988;5.854;2022-12-13T08:48:14;100761.63;;;0.83;69.07
70229;BME280;57617;51.988;5.854;2022-12-13T08:50:39;100764.78;;;0.87;69.22
70229;BME280;57617;51.988;5.854;2022-12-13T08:53:04;100779.81;;;0.88;69.48
70229;BME280;57617;51.988;5.854;2022-12-13T08:55:30;100773.75;;;0.94;68.96
70229;BME280;57617;51.988;5.854;2022-12-13T08:57:55;100783.72;;;1.00;68.96
70229;BME280;57617;51.988;5.854;2022-12-13T09:00:20;100787.53;;;1.05;69.01
70229;BME280;57617;51.988;5.854;2022-12-13T09:02:46;100776.28;;;1.10;69.30
70229;BME280;57617;51.988;5.854;2022-12-13T09:05:11;100771.41;;;1.13;68.77
70229;BME280;57617;51.988;5.854;2022-12-13T09:07:37;100772.72;;;1.17;68.46
70229;BME280;57617;51.988;5.854;2022-12-13T09:10:08;100781.03;;;1.22;68.94
70229;BME280;57617;51.988;5.854;2022-12-13T09:12:34;100768.13;;;1.26;68.52
70229;BME280;57617;51.988;5.854;2022-12-13T09:14:59;100772.25;;;1.28;68.42
70229;BME280;57617;51.988;5.854;2022-12-13T09:17:25;100781.22;;;1.35;69.23
70229;BME280;57617;51.988;5.854;2022-12-13T09:19:51;100780.69;;;1.40;68.70
70229;BME280;57617;51.988;5.854;2022-12-13T09:22:16;100782.16;;;1.42;68.20
70229;BME280;57617;51.988;5.854;2022-12-13T09:24:42;100787.97;;;1.46;68.46
70229;BME280;57617;51.988;5.854;2022-12-13T09:27:07;100790.47;;;1.47;68.08
70229;BME280;57617;51.988;5.854;2022-12-13T09:29:33;100789.81;;;1.45;67.73
70229;BME280;57617;51.988;5.854;2022-12-13T09:31:59;100773.28;;;1.42;68.56
70229;BME280;57617;51.988;5.854;2022-12-13T09:34:25;100797.47;;;1.48;68.42
70229;BME280;57617;51.988;5.854;2022-12-13T09:36:50;100790.47;;;1.47;67.85
70229;BME280;57617;51.988;5.854;2022-12-13T09:39:15;100787.41;;;1.50;68.20
70229;BME280;57617;51.988;5.854;2022-12-13T09:41:51;100794.25;;;1.38;67.38
70229;BME280;57617;51.988;5.854;2022-12-13T09:44:22;100795.25;;;1.37;67.86
70229;BME280;57617;51.988;5.854;2022-12-13T09:46:49;100789.91;;;1.37;67.78
70229;BME280;57617;51.988;5.854;2022-12-13T09:49:29;100797.94;;;1.37;68.11
70229;BME280;57617;51.988;5.854;2022-12-13T09:51:59;100772.81;;;1.24;68.52
70229;BME280;57617;51.988;5.854;2022-12-13T09:54:26;100795.09;;;1.39;67.43
70229;BME280;57617;51.988;5.854;2022-12-13T09:56:53;100791.22;;;1.41;67.99
70229;BME280;57617;51.988;5.854;2022-12-13T09:59:34;100786.16;;;1.46;67.88
70229;BME280;57617;51.988;5.854;2022-12-13T10:02:13;100783.09;;;1.49;67.08
70229;BME280;57617;51.988;5.854;2022-12-13T10:04:40;100774.78;;;1.44;67.60
70229;BME280;57617;51.988;5.854;2022-12-13T10:07:16;100775.63;;;1.45;67.67
70229;BME280;57617;51.988;5.854;2022-12-13T10:09:43;100766.91;;;1.43;67.48
70229;BME280;57617;51.988;5.854;2022-12-13T10:12:14;100764.97;;;1.37;67.97
70229;BME280;57617;51.988;5.854;2022-12-13T10:14:52;100760.94;;;1.41;67.63
70229;BME280;57617;51.988;5.854;2022-12-13T10:17:21;100753.75;;;1.41;68.05
70229;BME280;57617;51.988;5.854;2022-12-13T10:19:49;100754.66;;;1.48;68.16
70229;BME280;57617;51.988;5.854;2022-12-13T10:22:19;100754.59;;;1.56;67.67
70229;BME280;57617;51.988;5.854;2022-12-13T10:25:01;100758.19;;;1.63;67.54
70229;BME280;57617;51.988;5.854;2022-12-13T10:27:39;100755.16;;;1.66;67.28
70229;BME280;57617;51.988;5.854;2022-12-13T10:32:32;100741.38;;;1.69;67.12
70229;BME280;57617;51.988;5.854;2022-12-13T10:34:59;100742.69;;;1.73;67.76
70229;BME280;57617;51.988;5.854;2022-12-13T10:39:50;100737.31;;;1.73;67.11
70229;BME280;57617;51.988;5.854;2022-12-13T10:42:20;100723.66;;;1.68;67.48
70229;BME280;57617;51.988;5.854;2022-12-13T10:44:46;100726.16;;;1.70;66.71
70229;BME280;57617;51.988;5.854;2022-12-13T10:47:20;100723.66;;;1.68;67.27
70229;BME280;57617;51.988;5.854;2022-12-13T10:49:49;100722.00;;;1.67;66.68
70229;BME280;57617;51.988;5.854;2022-12-13T10:52:31;100720.81;;;1.70;66.36
70229;BME280;57617;51.988;5.854;2022-12-13T10:54:59;100715.06;;;1.73;67.46
70229;BME280;57617;51.988;5.854;2022-12-13T10:57:26;100709.97;;;1.78;67.04
70229;BME280;57617;51.988;5.854;2022-12-13T10:59:52;100710.25;;;1.83;67.19
70229;BME280;57617;51.988;5.854;2022-12-13T11:05:26;100706.47;;;1.92;66.12
70229;BME280;57617;51.988;5.854;2022-12-13T11:07:52;100702.13;;;1.91;66.43
70229;BME280;57617;51.988;5.854;2022-12-13T11:12:45;100704.16;;;1.89;66.03
70229;BME280;57617;51.988;5.854;2022-12-13T11:15:22;100710.78;;;1.93;66.19
70229;BME280;57617;51.988;5.854;2022-12-13T11:17:54;100704.63;;;1.92;66.03
70229;BME280;57617;51.988;5.854;2022-12-13T11:20:23;100702.03;;;1.84;66.68
70229;BME280;57617;51.988;5.854;2022-12-13T11:22:59;100703.34;;;1.88;66.14
70229;BME280;57617;51.988;5.854;2022-12-13T11:25:29;100697.03;;;1.96;66.74
70229;BME280;57617;51.988;5.854;2022-12-13T11:33:44;100683.72;;;2.02;66.70
70229;BME280;57617;51.988;5.854;2022-12-13T11:39:26;100682.13;;;2.08;66.35
70229;BME280;57617;51.988;5.854;2022-12-13T11:41:58;100689.53;;;2.06;65.41
70229;BME280;57617;51.988;5.854;2022-12-13T11:44:49;100686.78;;;1.99;65.70
70229;BME280;57617;51.988;5.854;2022-12-13T11:47:27;100675.03;;;2.00;65.38
70229;BME280;57617;51.988;5.854;2022-12-13T11:49:57;100672.81;;;2.04;65.31
70229;BME280;57617;51.988;5.854;2022-12-13T11:52:40;100672.00;;;2.03;65.98
70229;BME280;57617;51.988;5.854;2022-12-13T11:55:15;100665.63;;;2.04;66.31
70229;BME280;57617;51.988;5.854;2022-12-13T11:57:49;100660.53;;;2.09;65.88
70229;BME280;57617;51.988;5.854;2022-12-13T12:00:30;100656.72;;;2.18;66.14
70229;BME280;57617;51.988;5.854;2022-12-13T12:03:04;100651.34;;;2.18;65.56
70229;BME280;57617;51.988;5.854;2022-12-13T12:05:34;100659.16;;;2.20;65.50
70229;BME280;57617;51.988;5.854;2022-12-13T12:11:19;100642.84;;;2.15;65.91
70229;BME280;57617;51.988;5.854;2022-12-13T12:13:54;100648.84;;;2.17;64.71
70229;BME280;57617;51.988;5.854;2022-12-13T12:16:39;100647.19;;;2.16;64.87
70229;BME280;57617;51.988;5.854;2022-12-13T12:19:14;100649.81;;;2.09;64.34
70229;BME280;57617;51.988;5.854;2022-12-13T12:24:24;100661.16;;;2.11;65.21
70229;BME280;57617;51.988;5.854;2022-12-13T12:30:02;100648.78;;;2.10;64.84
70229;BME280;57617;51.988;5.854;2022-12-13T12:32:46;100644.28;;;2.11;64.56
70229;BME280;57617;51.988;5.854;2022-12-13T12:38:13;100657.84;;;2.09;65.27
70229;BME280;57617;51.988;5.854;2022-12-13T12:43:33;100650.56;;;2.03;64.92
70229;BME280;57617;51.988;5.854;2022-12-13T12:55:18;100666.72;;;2.10;65.11
70229;BME280;57617;51.988;5.854;2022-12-13T12:57:56;100666.25;;;2.06;64.36
70229;BME280;57617;51.988;5.854;2022-12-13T13:00:27;100667.72;;;2.09;64.37
70229;BME280;57617;51.988;5.854;2022-12-13T13:05:50;100653.13;;;2.11;64.10
70229;BME280;57617;51.988;5.854;2022-12-13T13:08:45;100650.69;;;2.16;64.07
70229;BME280;57617;51.988;5.854;2022-12-13T13:11:12;100643.09;;;2.20;65.14
70229;BME280;57617;51.988;5.854;2022-12-13T13:18:56;100631.44;;;2.27;64.67
70229;BME280;57617;51.988;5.854;2022-12-13T13:24:04;100630.63;;;2.27;62.81
70229;BME280;57617;51.988;5.854;2022-12-13T13:26:30;100627.88;;;2.20;64.79
70229;BME280;57617;51.988;5.854;2022-12-13T13:42:18;100618.44;;;2.24;63.61
70229;BME280;57617;51.988;5.854;2022-12-13T14:05:23;100589.94;;;2.17;63.71
70229;BME280;57617;51.988;5.854;2022-12-13T14:07:56;100583.09;;;2.14;63.55
70229;BME280;57617;51.988;5.854;2022-12-13T14:16:37;100582.59;;;2.04;63.89
70229;BME280;57617;51.988;5.854;2022-12-13T14:19:31;100587.75;;;2.06;63.88
70229;BME280;57617;51.988;5.854;2022-12-13T14:28:10;100588.53;;;2.00;64.40
70229;BME280;57617;51.988;5.854;2022-12-13T14:30:41;100591.00;;;2.01;64.16
70229;BME280;57617;51.988;5.854;2022-12-13T14:33:21;100588.72;;;1.98;63.27
70229;BME280;57617;51.988;5.854;2022-12-13T14:35:56;100580.44;;;1.93;63.13
70229;BME280;57617;51.988;5.854;2022-12-13T14:38:24;100587.44;;;1.94;64.02
70229;BME280;57617;51.988;5.854;2022-12-13T14:40:52;100585.59;;;1.95;63.89
70229;BME280;57617;51.988;5.854;2022-12-13T14:43:22;100583.47;;;1.90;63.76
70229;BME280;57617;51.988;5.854;2022-12-13T14:45:53;100584.94;;;1.93;63.69
70229;BME280;57617;51.988;5.854;2022-12-13T14:48:19;100580.44;;;1.93;63.90
70229;BME280;57617;51.988;5.854;2022-12-13T14:50:46;100584.31;;;1.91;64.07
70229;BME280;57617;51.988;5.854;2022-12-13T14:53:23;100582.66;;;1.90;64.17
70229;BME280;57617;51.988;5.854;2022-12-13T14:56:24;100587.53;;;1.86;63.53
70229;BME280;57617;51.988;5.854;2022-12-13T14:58:58;100583.97;;;1.79;64.02
70229;BME280;57617;51.988;5.854;2022-12-13T15:01:24;100588.72;;;1.77;63.79
70229;BME280;57617;51.988;5.854;2022-12-13T15:03:50;100584.34;;;1.76;64.78
70229;BME280;57617;51.988;5.854;2022-12-13T15:06:17;100575.88;;;1.73;64.62
70229;BME280;57617;51.988;5.854;2022-12-13T15:08:44;100578.09;;;1.69;64.24